CheckWX is a tool to help pilots better visualize weather data.  It is not intended as a substitute for an official pre-flight weather briefing.

19:58:35 UTC

CYPX TAF
Puvirnituq Airport
Puvirnituq, Canada
TAF CYPX 251738Z 2518/2606 10010G20KT P6SM FEW100 SCT240 RMK FCST BASED ON AUTO OBS. FCST BASED ON OBS OBTAINED FROM OTHER SOURCES. NXT FCST BY 260000Z

Jun-25@
18:00 UTC

Jun-25 @ 18:00 UTC

Jun-26@
06:00 UTC

Jun-26 @ 06:00 UTC

TAF CYPX 251738Z 2518/2606 10010G20KT P6SM FEW100 SCT240 RMK FCST BASED ON AUTO OBS. FCST BASED ON OBS OBTAINED FROM OTHER SOURCES. NXT FCST BY 260000Z
Wind
  • 100° at 10 KTS
  • {Gusting to 20 KTS
Cloud Levels
  • Few at 10,000' AGL
  • Scattered at 24,000' AGL